sensor_id;sensor_type;location;lat;lon;timestamp;P1;durP1;ratioP1;P2;durP2;ratioP2
5285;SDS011;2665;53.112;7.358;2022-09-09T00:00:22;7.90;;;3.53;;
5285;SDS011;2665;53.112;7.358;2022-09-09T00:03:00;4.50;;;3.63;;
5285;SDS011;2665;53.112;7.358;2022-09-09T00:08:02;7.70;;;3.20;;
5285;SDS011;2665;53.112;7.358;2022-09-09T00:10:30;5.43;;;3.47;;
5285;SDS011;2665;53.112;7.358;2022-09-09T00:15:34;5.83;;;2.90;;
5285;SDS011;2665;53.112;7.358;2022-09-09T00:22:59;4.27;;;3.30;;
5285;SDS011;2665;53.112;7.358;2022-09-09T00:25:28;7.10;;;3.60;;
5285;SDS011;2665;53.112;7.358;2022-09-09T00:27:55;4.80;;;3.40;;
5285;SDS011;2665;53.112;7.358;2022-09-09T00:30:26;9.30;;;4.47;;
5285;SDS011;2665;53.112;7.358;2022-09-09T00:32:53;9.10;;;4.57;;
5285;SDS011;2665;53.112;7.358;2022-09-09T00:35:24;5.43;;;4.00;;
5285;SDS011;2665;53.112;7.358;2022-09-09T00:37:53;6.67;;;3.50;;
5285;SDS011;2665;53.112;7.358;2022-09-09T00:40:31;7.43;;;4.40;;
5285;SDS011;2665;53.112;7.358;2022-09-09T00:43:01;4.43;;;2.93;;
5285;SDS011;2665;53.112;7.358;2022-09-09T00:45:44;4.73;;;3.30;;
5285;SDS011;2665;53.112;7.358;2022-09-09T00:48:11;8.00;;;4.27;;
5285;SDS011;2665;53.112;7.358;2022-09-09T00:50:56;4.20;;;3.47;;
5285;SDS011;2665;53.112;7.358;2022-09-09T00:56:14;5.30;;;3.90;;
5285;SDS011;2665;53.112;7.358;2022-09-09T00:58:47;4.90;;;3.37;;
5285;SDS011;2665;53.112;7.358;2022-09-09T01:01:17;5.00;;;3.57;;
5285;SDS011;2665;53.112;7.358;2022-09-09T01:03:46;9.03;;;3.97;;
5285;SDS011;2665;53.112;7.358;2022-09-09T01:11:48;4.93;;;3.60;;
5285;SDS011;2665;53.112;7.358;2022-09-09T01:14:35;4.13;;;3.37;;
5285;SDS011;2665;53.112;7.358;2022-09-09T01:27:27;8.03;;;4.17;;
5285;SDS011;2665;53.112;7.358;2022-09-09T01:29:53;4.93;;;3.20;;
5285;SDS011;2665;53.112;7.358;2022-09-09T01:35:05;4.50;;;2.97;;
5285;SDS011;2665;53.112;7.358;2022-09-09T01:37:33;6.00;;;3.10;;
5285;SDS011;2665;53.112;7.358;2022-09-09T01:39:59;5.17;;;2.90;;
5285;SDS011;2665;53.112;7.358;2022-09-09T01:42:25;6.67;;;2.77;;
5285;SDS011;2665;53.112;7.358;2022-09-09T01:44:51;4.60;;;2.70;;
5285;SDS011;2665;53.112;7.358;2022-09-09T01:47:19;4.80;;;2.60;;
5285;SDS011;2665;53.112;7.358;2022-09-09T01:49:45;7.13;;;3.27;;
5285;SDS011;2665;53.112;7.358;2022-09-09T01:52:11;7.10;;;3.20;;
5285;SDS011;2665;53.112;7.358;2022-09-09T01:54:37;7.90;;;4.80;;
5285;SDS011;2665;53.112;7.358;2022-09-09T01:57:11;7.70;;;3.23;;
5285;SDS011;2665;53.112;7.358;2022-09-09T02:00:00;4.57;;;3.30;;
5285;SDS011;2665;53.112;7.358;2022-09-09T02:02:34;4.73;;;3.50;;
5285;SDS011;2665;53.112;7.358;2022-09-09T02:07:40;5.53;;;3.30;;
5285;SDS011;2665;53.112;7.358;2022-09-09T02:12:33;4.43;;;3.27;;
5285;SDS011;2665;53.112;7.358;2022-09-09T02:15:03;6.70;;;3.60;;
5285;SDS011;2665;53.112;7.358;2022-09-09T02:17:31;6.07;;;3.30;;
5285;SDS011;2665;53.112;7.358;2022-09-09T02:19:59;5.17;;;3.73;;
5285;SDS011;2665;53.112;7.358;2022-09-09T02:22:28;6.10;;;3.90;;
5285;SDS011;2665;53.112;7.358;2022-09-09T02:24:57;6.47;;;3.60;;
5285;SDS011;2665;53.112;7.358;2022-09-09T02:27:24;4.00;;;2.97;;
5285;SDS011;2665;53.112;7.358;2022-09-09T02:29:51;8.30;;;3.23;;
5285;SDS011;2665;53.112;7.358;2022-09-09T02:32:18;3.93;;;3.00;;
5285;SDS011;2665;53.112;7.358;2022-09-09T02:34:47;3.90;;;2.47;;
5285;SDS011;2665;53.112;7.358;2022-09-09T02:37:15;6.70;;;2.60;;
5285;SDS011;2665;53.112;7.358;2022-09-09T02:39:42;4.00;;;2.80;;
5285;SDS011;2665;53.112;7.358;2022-09-09T02:42:09;3.13;;;2.33;;
5285;SDS011;2665;53.112;7.358;2022-09-09T02:44:35;3.20;;;2.40;;
5285;SDS011;2665;53.112;7.358;2022-09-09T02:55:04;3.77;;;3.10;;
5285;SDS011;2665;53.112;7.358;2022-09-09T02:57:31;4.90;;;2.70;;
5285;SDS011;2665;53.112;7.358;2022-09-09T02:59:58;4.93;;;2.63;;
5285;SDS011;2665;53.112;7.358;2022-09-09T03:02:25;4.70;;;2.80;;
5285;SDS011;2665;53.112;7.358;2022-09-09T03:04:51;4.90;;;2.67;;
5285;SDS011;2665;53.112;7.358;2022-09-09T03:07:18;6.20;;;2.60;;
5285;SDS011;2665;53.112;7.358;2022-09-09T03:09:44;3.90;;;2.67;;
5285;SDS011;2665;53.112;7.358;2022-09-09T03:12:10;3.43;;;2.10;;
5285;SDS011;2665;53.112;7.358;2022-09-09T03:14:37;3.90;;;2.57;;
5285;SDS011;2665;53.112;7.358;2022-09-09T03:17:03;11.13;;;2.87;;
5285;SDS011;2665;53.112;7.358;2022-09-09T03:19:30;3.60;;;2.43;;
5285;SDS011;2665;53.112;7.358;2022-09-09T03:21:56;4.77;;;2.90;;
5285;SDS011;2665;53.112;7.358;2022-09-09T03:24:23;4.40;;;3.03;;
5285;SDS011;2665;53.112;7.358;2022-09-09T03:26:49;4.77;;;3.57;;
5285;SDS011;2665;53.112;7.358;2022-09-09T03:29:15;4.93;;;2.97;;
5285;SDS011;2665;53.112;7.358;2022-09-09T03:31:42;4.83;;;2.97;;
5285;SDS011;2665;53.112;7.358;2022-09-09T03:34:08;5.97;;;3.47;;
5285;SDS011;2665;53.112;7.358;2022-09-09T03:36:34;4.90;;;3.13;;
5285;SDS011;2665;53.112;7.358;2022-09-09T03:39:00;5.53;;;2.97;;
5285;SDS011;2665;53.112;7.358;2022-09-09T03:41:28;3.73;;;3.10;;
5285;SDS011;2665;53.112;7.358;2022-09-09T03:43:54;9.43;;;3.53;;
5285;SDS011;2665;53.112;7.358;2022-09-09T03:46:20;7.23;;;3.07;;
5285;SDS011;2665;53.112;7.358;2022-09-09T03:48:46;5.60;;;2.90;;
5285;SDS011;2665;53.112;7.358;2022-09-09T03:51:13;5.07;;;2.93;;
5285;SDS011;2665;53.112;7.358;2022-09-09T03:53:40;3.57;;;2.60;;
5285;SDS011;2665;53.112;7.358;2022-09-09T03:56:06;5.67;;;3.50;;
5285;SDS011;2665;53.112;7.358;2022-09-09T03:58:32;5.13;;;3.17;;
5285;SDS011;2665;53.112;7.358;2022-09-09T04:01:06;6.73;;;3.50;;
5285;SDS011;2665;53.112;7.358;2022-09-09T04:03:33;4.40;;;3.00;;
5285;SDS011;2665;53.112;7.358;2022-09-09T04:06:00;3.77;;;2.60;;
5285;SDS011;2665;53.112;7.358;2022-09-09T04:08:27;4.20;;;3.10;;
5285;SDS011;2665;53.112;7.358;2022-09-09T04:10:53;7.03;;;2.97;;
5285;SDS011;2665;53.112;7.358;2022-09-09T04:13:22;5.03;;;2.87;;
5285;SDS011;2665;53.112;7.358;2022-09-09T04:15:55;3.03;;;1.93;;
5285;SDS011;2665;53.112;7.358;2022-09-09T04:18:21;3.73;;;2.57;;
5285;SDS011;2665;53.112;7.358;2022-09-09T04:20:49;6.47;;;2.43;;
5285;SDS011;2665;53.112;7.358;2022-09-09T04:23:15;4.70;;;3.17;;
5285;SDS011;2665;53.112;7.358;2022-09-09T04:25:43;8.10;;;3.37;;
5285;SDS011;2665;53.112;7.358;2022-09-09T04:28:10;13.83;;;3.27;;
5285;SDS011;2665;53.112;7.358;2022-09-09T04:30:36;3.80;;;3.00;;
5285;SDS011;2665;53.112;7.358;2022-09-09T04:33:04;5.60;;;2.63;;
5285;SDS011;2665;53.112;7.358;2022-09-09T04:35:31;3.77;;;2.70;;
5285;SDS011;2665;53.112;7.358;2022-09-09T04:37:57;3.30;;;2.60;;
5285;SDS011;2665;53.112;7.358;2022-09-09T04:40:23;4.40;;;2.70;;
5285;SDS011;2665;53.112;7.358;2022-09-09T04:42:50;10.40;;;5.10;;
5285;SDS011;2665;53.112;7.358;2022-09-09T04:45:16;4.50;;;2.53;;
5285;SDS011;2665;53.112;7.358;2022-09-09T04:47:43;3.60;;;2.97;;
5285;SDS011;2665;53.112;7.358;2022-09-09T04:50:09;3.57;;;1.97;;
5285;SDS011;2665;53.112;7.358;2022-09-09T04:52:35;2.83;;;2.00;;
5285;SDS011;2665;53.112;7.358;2022-09-09T04:55:02;3.17;;;1.87;;
5285;SDS011;2665;53.112;7.358;2022-09-09T04:57:28;7.27;;;1.73;;
5285;SDS011;2665;53.112;7.358;2022-09-09T04:59:55;6.83;;;2.13;;
5285;SDS011;2665;53.112;7.358;2022-09-09T05:02:21;5.67;;;2.00;;
5285;SDS011;2665;53.112;7.358;2022-09-09T05:04:47;2.80;;;1.53;;
5285;SDS011;2665;53.112;7.358;2022-09-09T05:07:14;6.00;;;1.80;;
5285;SDS011;2665;53.112;7.358;2022-09-09T05:09:40;2.53;;;1.50;;
5285;SDS011;2665;53.112;7.358;2022-09-09T05:12:06;7.27;;;1.53;;
5285;SDS011;2665;53.112;7.358;2022-09-09T05:14:33;2.47;;;1.30;;
5285;SDS011;2665;53.112;7.358;2022-09-09T05:17:02;3.13;;;1.97;;
5285;SDS011;2665;53.112;7.358;2022-09-09T05:19:28;2.57;;;1.73;;
5285;SDS011;2665;53.112;7.358;2022-09-09T05:21:54;2.70;;;2.00;;
5285;SDS011;2665;53.112;7.358;2022-09-09T05:24:20;6.87;;;2.10;;
5285;SDS011;2665;53.112;7.358;2022-09-09T05:26:48;3.50;;;2.27;;
5285;SDS011;2665;53.112;7.358;2022-09-09T05:29:14;4.20;;;2.23;;
5285;SDS011;2665;53.112;7.358;2022-09-09T05:31:40;3.53;;;2.37;;
5285;SDS011;2665;53.112;7.358;2022-09-09T05:34:06;4.33;;;1.80;;
5285;SDS011;2665;53.112;7.358;2022-09-09T05:36:32;4.47;;;2.80;;
5285;SDS011;2665;53.112;7.358;2022-09-09T05:38:58;3.03;;;1.93;;
5285;SDS011;2665;53.112;7.358;2022-09-09T05:41:24;3.90;;;2.60;;
5285;SDS011;2665;53.112;7.358;2022-09-09T05:43:50;3.40;;;2.67;;
5285;SDS011;2665;53.112;7.358;2022-09-09T05:46:17;4.93;;;3.07;;
5285;SDS011;2665;53.112;7.358;2022-09-09T05:48:44;3.60;;;2.50;;
5285;SDS011;2665;53.112;7.358;2022-09-09T05:51:12;4.40;;;2.70;;
5285;SDS011;2665;53.112;7.358;2022-09-09T05:53:40;4.43;;;2.43;;
5285;SDS011;2665;53.112;7.358;2022-09-09T05:56:08;3.83;;;2.13;;
5285;SDS011;2665;53.112;7.358;2022-09-09T05:58:37;3.13;;;2.57;;
5285;SDS011;2665;53.112;7.358;2022-09-09T06:01:05;3.50;;;2.43;;
5285;SDS011;2665;53.112;7.358;2022-09-09T06:03:32;5.00;;;2.50;;
5285;SDS011;2665;53.112;7.358;2022-09-09T06:05:58;3.20;;;2.53;;
5285;SDS011;2665;53.112;7.358;2022-09-09T06:08:25;4.40;;;2.73;;
5285;SDS011;2665;53.112;7.358;2022-09-09T06:10:51;3.50;;;2.70;;
5285;SDS011;2665;53.112;7.358;2022-09-09T06:13:17;5.07;;;2.80;;
5285;SDS011;2665;53.112;7.358;2022-09-09T06:15:50;3.60;;;2.50;;
5285;SDS011;2665;53.112;7.358;2022-09-09T06:18:17;3.83;;;2.60;;
5285;SDS011;2665;53.112;7.358;2022-09-09T06:20:52;6.70;;;2.73;;
5285;SDS011;2665;53.112;7.358;2022-09-09T06:23:18;6.00;;;2.10;;
5285;SDS011;2665;53.112;7.358;2022-09-09T06:25:45;4.87;;;2.33;;
5285;SDS011;2665;53.112;7.358;2022-09-09T06:28:11;4.07;;;2.73;;
5285;SDS011;2665;53.112;7.358;2022-09-09T06:30:38;5.10;;;2.23;;
5285;SDS011;2665;53.112;7.358;2022-09-09T06:33:05;4.17;;;2.70;;
5285;SDS011;2665;53.112;7.358;2022-09-09T06:35:31;3.43;;;2.03;;
5285;SDS011;2665;53.112;7.358;2022-09-09T06:37:57;2.70;;;2.00;;
5285;SDS011;2665;53.112;7.358;2022-09-09T06:40:23;5.73;;;2.20;;
5285;SDS011;2665;53.112;7.358;2022-09-09T06:42:49;3.80;;;2.53;;
5285;SDS011;2665;53.112;7.358;2022-09-09T06:45:15;4.47;;;2.43;;
5285;SDS011;2665;53.112;7.358;2022-09-09T06:47:41;6.63;;;2.20;;
5285;SDS011;2665;53.112;7.358;2022-09-09T06:50:07;5.73;;;2.27;;
5285;SDS011;2665;53.112;7.358;2022-09-09T06:52:35;3.10;;;2.20;;
5285;SDS011;2665;53.112;7.358;2022-09-09T06:55:01;5.23;;;2.90;;
5285;SDS011;2665;53.112;7.358;2022-09-09T06:57:27;5.33;;;2.27;;
5285;SDS011;2665;53.112;7.358;2022-09-09T06:59:53;4.07;;;2.80;;
5285;SDS011;2665;53.112;7.358;2022-09-09T07:02:19;2.73;;;1.80;;
5285;SDS011;2665;53.112;7.358;2022-09-09T07:04:46;5.10;;;2.60;;
5285;SDS011;2665;53.112;7.358;2022-09-09T07:07:12;11.00;;;2.80;;
5285;SDS011;2665;53.112;7.358;2022-09-09T07:09:40;4.27;;;2.43;;
5285;SDS011;2665;53.112;7.358;2022-09-09T07:12:06;4.63;;;2.57;;
5285;SDS011;2665;53.112;7.358;2022-09-09T07:14:32;3.70;;;2.57;;
5285;SDS011;2665;53.112;7.358;2022-09-09T07:17:01;4.90;;;2.40;;
5285;SDS011;2665;53.112;7.358;2022-09-09T07:19:27;3.90;;;2.40;;
5285;SDS011;2665;53.112;7.358;2022-09-09T07:21:53;4.43;;;3.00;;
5285;SDS011;2665;53.112;7.358;2022-09-09T07:24:19;4.90;;;2.60;;
5285;SDS011;2665;53.112;7.358;2022-09-09T07:26:45;6.20;;;2.87;;
5285;SDS011;2665;53.112;7.358;2022-09-09T07:29:11;4.33;;;3.10;;
5285;SDS011;2665;53.112;7.358;2022-09-09T07:31:40;3.30;;;2.67;;
5285;SDS011;2665;53.112;7.358;2022-09-09T07:34:06;4.03;;;2.70;;
5285;SDS011;2665;53.112;7.358;2022-09-09T07:36:34;3.67;;;2.83;;
5285;SDS011;2665;53.112;7.358;2022-09-09T07:39:01;5.03;;;3.00;;
5285;SDS011;2665;53.112;7.358;2022-09-09T07:41:32;4.57;;;3.17;;
5285;SDS011;2665;53.112;7.358;2022-09-09T07:43:59;4.97;;;3.23;;
5285;SDS011;2665;53.112;7.358;2022-09-09T07:46:26;5.20;;;3.27;;
5285;SDS011;2665;53.112;7.358;2022-09-09T07:48:53;7.63;;;2.60;;
5285;SDS011;2665;53.112;7.358;2022-09-09T07:51:24;5.20;;;2.70;;
5285;SDS011;2665;53.112;7.358;2022-09-09T07:53:52;12.00;;;2.93;;
5285;SDS011;2665;53.112;7.358;2022-09-09T07:56:18;4.10;;;2.77;;
5285;SDS011;2665;53.112;7.358;2022-09-09T07:58:47;5.00;;;2.40;;
5285;SDS011;2665;53.112;7.358;2022-09-09T08:01:18;5.07;;;1.80;;
5285;SDS011;2665;53.112;7.358;2022-09-09T08:03:45;3.87;;;2.50;;
5285;SDS011;2665;53.112;7.358;2022-09-09T08:06:11;4.20;;;2.93;;
5285;SDS011;2665;53.112;7.358;2022-09-09T08:08:38;3.30;;;2.20;;
5285;SDS011;2665;53.112;7.358;2022-09-09T08:11:13;4.07;;;2.13;;
5285;SDS011;2665;53.112;7.358;2022-09-09T08:13:40;3.53;;;2.27;;
5285;SDS011;2665;53.112;7.358;2022-09-09T08:16:08;3.93;;;2.60;;
5285;SDS011;2665;53.112;7.358;2022-09-09T08:18:34;4.10;;;2.73;;
5285;SDS011;2665;53.112;7.358;2022-09-09T08:21:14;3.50;;;2.70;;
5285;SDS011;2665;53.112;7.358;2022-09-09T08:23:42;4.27;;;2.70;;
5285;SDS011;2665;53.112;7.358;2022-09-09T08:26:10;4.00;;;2.00;;
5285;SDS011;2665;53.112;7.358;2022-09-09T08:28:36;4.20;;;2.10;;
5285;SDS011;2665;53.112;7.358;2022-09-09T08:31:07;3.10;;;1.50;;
5285;SDS011;2665;53.112;7.358;2022-09-09T08:33:33;3.40;;;2.37;;
5285;SDS011;2665;53.112;7.358;2022-09-09T08:35:59;4.63;;;2.20;;
5285;SDS011;2665;53.112;7.358;2022-09-09T08:38:25;4.70;;;3.00;;
5285;SDS011;2665;53.112;7.358;2022-09-09T08:40:52;3.63;;;2.27;;
5285;SDS011;2665;53.112;7.358;2022-09-09T08:43:24;3.10;;;2.20;;
5285;SDS011;2665;53.112;7.358;2022-09-09T08:48:32;4.23;;;2.53;;
5285;SDS011;2665;53.112;7.358;2022-09-09T08:51:06;4.80;;;3.03;;
5285;SDS011;2665;53.112;7.358;2022-09-09T08:53:42;2.47;;;1.70;;
5285;SDS011;2665;53.112;7.358;2022-09-09T08:56:11;3.60;;;2.27;;
5285;SDS011;2665;53.112;7.358;2022-09-09T08:58:51;5.60;;;2.20;;
5285;SDS011;2665;53.112;7.358;2022-09-09T09:01:35;3.90;;;2.20;;
5285;SDS011;2665;53.112;7.358;2022-09-09T09:09:36;4.53;;;2.27;;
5285;SDS011;2665;53.112;7.358;2022-09-09T09:12:08;2.43;;;1.83;;
5285;SDS011;2665;53.112;7.358;2022-09-09T09:14:34;3.43;;;2.10;;
5285;SDS011;2665;53.112;7.358;2022-09-09T09:17:02;7.90;;;2.00;;
5285;SDS011;2665;53.112;7.358;2022-09-09T09:19:29;3.00;;;1.63;;
5285;SDS011;2665;53.112;7.358;2022-09-09T09:26:48;7.93;;;1.90;;
5285;SDS011;2665;53.112;7.358;2022-09-09T09:29:18;4.57;;;1.93;;
5285;SDS011;2665;53.112;7.358;2022-09-09T09:31:51;4.23;;;1.30;;
5285;SDS011;2665;53.112;7.358;2022-09-09T09:34:19;4.10;;;1.80;;
5285;SDS011;2665;53.112;7.358;2022-09-09T09:36:53;5.73;;;1.77;;
5285;SDS011;2665;53.112;7.358;2022-09-09T09:39:23;3.50;;;1.37;;
5285;SDS011;2665;53.112;7.358;2022-09-09T09:41:49;6.47;;;1.87;;
5285;SDS011;2665;53.112;7.358;2022-09-09T09:46:48;5.70;;;1.80;;
5285;SDS011;2665;53.112;7.358;2022-09-09T09:49:14;3.90;;;1.40;;
5285;SDS011;2665;53.112;7.358;2022-09-09T09:51:40;3.87;;;1.50;;
5285;SDS011;2665;53.112;7.358;2022-09-09T09:54:18;9.43;;;1.67;;
5285;SDS011;2665;53.112;7.358;2022-09-09T09:56:47;6.63;;;1.77;;
5285;SDS011;2665;53.112;7.358;2022-09-09T09:59:32;2.77;;;1.50;;
5285;SDS011;2665;53.112;7.358;2022-09-09T10:04:41;2.30;;;1.10;;
5285;SDS011;2665;53.112;7.358;2022-09-09T10:07:10;4.97;;;1.87;;
5285;SDS011;2665;53.112;7.358;2022-09-09T10:09:36;4.37;;;1.67;;
5285;SDS011;2665;53.112;7.358;2022-09-09T10:22:27;5.53;;;1.60;;
5285;SDS011;2665;53.112;7.358;2022-09-09T10:27:46;4.50;;;1.63;;
5285;SDS011;2665;53.112;7.358;2022-09-09T10:33:09;3.03;;;1.57;;
5285;SDS011;2665;53.112;7.358;2022-09-09T10:35:42;4.87;;;1.53;;
5285;SDS011;2665;53.112;7.358;2022-09-09T10:40:46;3.90;;;1.30;;
5285;SDS011;2665;53.112;7.358;2022-09-09T10:46:10;5.50;;;1.10;;
5285;SDS011;2665;53.112;7.358;2022-09-09T10:51:20;2.20;;;0.80;;
5285;SDS011;2665;53.112;7.358;2022-09-09T10:54:02;4.67;;;1.17;;
5285;SDS011;2665;53.112;7.358;2022-09-09T10:56:31;5.27;;;0.90;;
5285;SDS011;2665;53.112;7.358;2022-09-09T11:01:34;12.83;;;1.53;;
5285;SDS011;2665;53.112;7.358;2022-09-09T11:04:11;4.07;;;0.97;;
5285;SDS011;2665;53.112;7.358;2022-09-09T11:06:39;3.10;;;1.17;;
5285;SDS011;2665;53.112;7.358;2022-09-09T11:09:08;3.47;;;1.17;;
5285;SDS011;2665;53.112;7.358;2022-09-09T11:11:39;3.60;;;0.90;;
5285;SDS011;2665;53.112;7.358;2022-09-09T11:16:40;3.20;;;1.40;;
5285;SDS011;2665;53.112;7.358;2022-09-09T11:21:47;4.73;;;0.97;;
5285;SDS011;2665;53.112;7.358;2022-09-09T11:26:57;4.10;;;1.20;;
5285;SDS011;2665;53.112;7.358;2022-09-09T11:34:37;2.77;;;1.03;;
5285;SDS011;2665;53.112;7.358;2022-09-09T11:42:23;1.93;;;0.70;;
5285;SDS011;2665;53.112;7.358;2022-09-09T11:44:49;3.77;;;0.90;;
5285;SDS011;2665;53.112;7.358;2022-09-09T11:47:23;2.37;;;0.93;;
5285;SDS011;2665;53.112;7.358;2022-09-09T11:49:51;5.60;;;1.13;;
5285;SDS011;2665;53.112;7.358;2022-09-09T11:55:10;5.20;;;2.10;;
5285;SDS011;2665;53.112;7.358;2022-09-09T11:57:38;7.60;;;1.30;;
5285;SDS011;2665;53.112;7.358;2022-09-09T12:00:04;4.10;;;1.00;;
5285;SDS011;2665;53.112;7.358;2022-09-09T12:02:31;3.67;;;1.07;;
5285;SDS011;2665;53.112;7.358;2022-09-09T12:04:58;2.90;;;1.00;;
5285;SDS011;2665;53.112;7.358;2022-09-09T12:10:01;2.20;;;0.70;;
5285;SDS011;2665;53.112;7.358;2022-09-09T12:12:30;3.93;;;0.90;;
5285;SDS011;2665;53.112;7.358;2022-09-09T12:17:36;3.83;;;1.13;;
5285;SDS011;2665;53.112;7.358;2022-09-09T12:20:14;5.50;;;1.10;;
5285;SDS011;2665;53.112;7.358;2022-09-09T12:22:57;4.57;;;1.17;;
5285;SDS011;2665;53.112;7.358;2022-09-09T12:26:07;3.60;;;0.87;;
5285;SDS011;2665;53.112;7.358;2022-09-09T12:28:53;7.10;;;1.20;;
5285;SDS011;2665;53.112;7.358;2022-09-09T12:32:06;4.93;;;1.37;;
5285;SDS011;2665;53.112;7.358;2022-09-09T12:37:31;4.00;;;1.00;;
5285;SDS011;2665;53.112;7.358;2022-09-09T12:39:58;5.43;;;1.23;;
5285;SDS011;2665;53.112;7.358;2022-09-09T12:42:27;3.10;;;0.90;;
5285;SDS011;2665;53.112;7.358;2022-09-09T12:44:54;4.37;;;1.10;;
5285;SDS011;2665;53.112;7.358;2022-09-09T12:47:22;2.87;;;0.77;;
5285;SDS011;2665;53.112;7.358;2022-09-09T12:49:50;2.80;;;1.00;;
5285;SDS011;2665;53.112;7.358;2022-09-09T12:52:24;4.53;;;1.10;;
5285;SDS011;2665;53.112;7.358;2022-09-09T12:54:51;5.47;;;0.83;;
5285;SDS011;2665;53.112;7.358;2022-09-09T12:57:18;3.70;;;0.90;;
5285;SDS011;2665;53.112;7.358;2022-09-09T12:59:45;3.67;;;1.10;;
5285;SDS011;2665;53.112;7.358;2022-09-09T13:02:16;4.43;;;1.33;;
5285;SDS011;2665;53.112;7.358;2022-09-09T13:04:43;2.70;;;1.27;;
5285;SDS011;2665;53.112;7.358;2022-09-09T13:07:11;2.70;;;0.70;;
5285;SDS011;2665;53.112;7.358;2022-09-09T13:09:38;4.13;;;1.10;;
5285;SDS011;2665;53.112;7.358;2022-09-09T13:12:05;6.57;;;0.90;;
5285;SDS011;2665;53.112;7.358;2022-09-09T13:14:33;3.37;;;0.80;;
5285;SDS011;2665;53.112;7.358;2022-09-09T13:17:03;3.30;;;0.80;;
5285;SDS011;2665;53.112;7.358;2022-09-09T13:19:30;2.13;;;0.70;;
5285;SDS011;2665;53.112;7.358;2022-09-09T13:21:57;6.80;;;1.87;;
5285;SDS011;2665;53.112;7.358;2022-09-09T13:24:28;2.33;;;1.03;;
5285;SDS011;2665;53.112;7.358;2022-09-09T13:26:58;2.10;;;0.70;;
5285;SDS011;2665;53.112;7.358;2022-09-09T13:29:27;2.70;;;0.70;;
5285;SDS011;2665;53.112;7.358;2022-09-09T13:31:53;2.90;;;0.60;;
5285;SDS011;2665;53.112;7.358;2022-09-09T13:34:32;5.30;;;1.67;;
5285;SDS011;2665;53.112;7.358;2022-09-09T13:37:05;2.97;;;1.00;;
5285;SDS011;2665;53.112;7.358;2022-09-09T13:39:38;2.60;;;0.67;;
5285;SDS011;2665;53.112;7.358;2022-09-09T13:42:04;2.60;;;0.70;;
5285;SDS011;2665;53.112;7.358;2022-09-09T13:44:34;2.40;;;0.60;;
5285;SDS011;2665;53.112;7.358;2022-09-09T13:47:06;3.50;;;0.80;;
5285;SDS011;2665;53.112;7.358;2022-09-09T13:49:43;2.90;;;0.63;;
5285;SDS011;2665;53.112;7.358;2022-09-09T13:52:14;3.43;;;0.70;;
5285;SDS011;2665;53.112;7.358;2022-09-09T13:54:42;3.13;;;0.80;;
5285;SDS011;2665;53.112;7.358;2022-09-09T13:57:19;5.10;;;0.90;;
5285;SDS011;2665;53.112;7.358;2022-09-09T13:59:46;2.63;;;0.70;;
5285;SDS011;2665;53.112;7.358;2022-09-09T14:02:12;3.30;;;0.70;;
5285;SDS011;2665;53.112;7.358;2022-09-09T14:04:38;2.10;;;0.73;;
5285;SDS011;2665;53.112;7.358;2022-09-09T14:07:07;6.27;;;1.20;;
5285;SDS011;2665;53.112;7.358;2022-09-09T14:09:34;3.30;;;0.70;;
5285;SDS011;2665;53.112;7.358;2022-09-09T14:12:01;2.10;;;0.67;;
5285;SDS011;2665;53.112;7.358;2022-09-09T14:14:27;2.37;;;0.63;;
5285;SDS011;2665;53.112;7.358;2022-09-09T14:16:53;2.47;;;0.60;;
5285;SDS011;2665;53.112;7.358;2022-09-09T14:19:19;4.43;;;0.70;;
5285;SDS011;2665;53.112;7.358;2022-09-09T14:21:45;2.03;;;0.60;;
5285;SDS011;2665;53.112;7.358;2022-09-09T14:24:11;2.20;;;0.53;;
5285;SDS011;2665;53.112;7.358;2022-09-09T14:26:37;3.20;;;0.60;;
5285;SDS011;2665;53.112;7.358;2022-09-09T14:29:03;2.00;;;0.60;;
5285;SDS011;2665;53.112;7.358;2022-09-09T14:31:29;1.73;;;0.70;;
5285;SDS011;2665;53.112;7.358;2022-09-09T14:33:55;3.20;;;0.70;;
5285;SDS011;2665;53.112;7.358;2022-09-09T14:36:21;2.63;;;0.70;;
5285;SDS011;2665;53.112;7.358;2022-09-09T14:38:49;3.70;;;0.70;;
5285;SDS011;2665;53.112;7.358;2022-09-09T14:41:16;3.00;;;0.80;;
5285;SDS011;2665;53.112;7.358;2022-09-09T14:43:42;1.83;;;0.67;;
5285;SDS011;2665;53.112;7.358;2022-09-09T14:46:10;1.60;;;0.60;;
5285;SDS011;2665;53.112;7.358;2022-09-09T14:48:36;2.80;;;0.70;;
5285;SDS011;2665;53.112;7.358;2022-09-09T14:51:05;3.40;;;1.00;;
5285;SDS011;2665;53.112;7.358;2022-09-09T14:53:31;1.80;;;0.60;;
5285;SDS011;2665;53.112;7.358;2022-09-09T14:56:11;4.10;;;0.70;;
5285;SDS011;2665;53.112;7.358;2022-09-09T14:58:38;3.30;;;0.90;;
5285;SDS011;2665;53.112;7.358;2022-09-09T15:01:05;3.23;;;0.70;;
5285;SDS011;2665;53.112;7.358;2022-09-09T15:03:31;2.87;;;0.63;;
5285;SDS011;2665;53.112;7.358;2022-09-09T15:05:57;2.70;;;0.63;;
5285;SDS011;2665;53.112;7.358;2022-09-09T15:08:23;3.03;;;0.53;;
5285;SDS011;2665;53.112;7.358;2022-09-09T15:10:50;2.00;;;0.70;;
5285;SDS011;2665;53.112;7.358;2022-09-09T15:13:16;5.00;;;1.40;;
5285;SDS011;2665;53.112;7.358;2022-09-09T15:15:43;2.53;;;0.63;;
5285;SDS011;2665;53.112;7.358;2022-09-09T15:18:09;3.90;;;0.90;;
5285;SDS011;2665;53.112;7.358;2022-09-09T15:20:35;3.20;;;0.77;;
5285;SDS011;2665;53.112;7.358;2022-09-09T15:23:02;4.57;;;1.93;;
5285;SDS011;2665;53.112;7.358;2022-09-09T15:25:28;2.67;;;0.90;;
5285;SDS011;2665;53.112;7.358;2022-09-09T15:27:54;2.27;;;0.90;;
5285;SDS011;2665;53.112;7.358;2022-09-09T15:30:21;3.63;;;0.80;;
5285;SDS011;2665;53.112;7.358;2022-09-09T15:32:47;4.47;;;0.80;;
5285;SDS011;2665;53.112;7.358;2022-09-09T15:35:13;2.20;;;0.60;;
5285;SDS011;2665;53.112;7.358;2022-09-09T15:37:40;1.70;;;0.70;;
5285;SDS011;2665;53.112;7.358;2022-09-09T15:40:06;2.63;;;0.50;;
5285;SDS011;2665;53.112;7.358;2022-09-09T15:42:32;3.93;;;0.73;;
5285;SDS011;2665;53.112;7.358;2022-09-09T15:44:58;2.20;;;0.63;;
5285;SDS011;2665;53.112;7.358;2022-09-09T15:47:25;2.07;;;0.90;;
5285;SDS011;2665;53.112;7.358;2022-09-09T15:49:52;6.53;;;0.60;;
5285;SDS011;2665;53.112;7.358;2022-09-09T15:52:18;2.87;;;0.63;;
5285;SDS011;2665;53.112;7.358;2022-09-09T15:54:44;2.37;;;0.70;;
5285;SDS011;2665;53.112;7.358;2022-09-09T15:57:11;1.90;;;0.60;;
5285;SDS011;2665;53.112;7.358;2022-09-09T15:59:37;3.50;;;0.50;;
5285;SDS011;2665;53.112;7.358;2022-09-09T16:02:03;2.73;;;0.67;;
5285;SDS011;2665;53.112;7.358;2022-09-09T16:04:30;1.60;;;0.50;;
5285;SDS011;2665;53.112;7.358;2022-09-09T16:07:01;1.80;;;0.50;;
5285;SDS011;2665;53.112;7.358;2022-09-09T16:09:28;2.00;;;0.63;;
5285;SDS011;2665;53.112;7.358;2022-09-09T16:12:00;1.70;;;0.53;;
5285;SDS011;2665;53.112;7.358;2022-09-09T16:14:27;1.70;;;0.50;;
5285;SDS011;2665;53.112;7.358;2022-09-09T16:16:58;1.60;;;0.50;;
5285;SDS011;2665;53.112;7.358;2022-09-09T16:19:24;1.70;;;0.50;;
5285;SDS011;2665;53.112;7.358;2022-09-09T16:21:50;1.50;;;0.40;;
5285;SDS011;2665;53.112;7.358;2022-09-09T16:24:17;1.70;;;0.60;;
5285;SDS011;2665;53.112;7.358;2022-09-09T16:26:45;1.90;;;0.70;;
5285;SDS011;2665;53.112;7.358;2022-09-09T16:29:12;1.60;;;0.50;;
5285;SDS011;2665;53.112;7.358;2022-09-09T16:31:39;1.90;;;0.50;;
5285;SDS011;2665;53.112;7.358;2022-09-09T16:34:05;1.50;;;0.50;;
5285;SDS011;2665;53.112;7.358;2022-09-09T16:36:32;1.50;;;0.50;;
5285;SDS011;2665;53.112;7.358;2022-09-09T16:38:59;2.00;;;0.70;;
5285;SDS011;2665;53.112;7.358;2022-09-09T16:41:26;1.70;;;0.60;;
5285;SDS011;2665;53.112;7.358;2022-09-09T16:43:56;1.60;;;0.50;;
5285;SDS011;2665;53.112;7.358;2022-09-09T16:46:24;3.50;;;0.83;;
5285;SDS011;2665;53.112;7.358;2022-09-09T16:48:52;1.70;;;0.60;;
5285;SDS011;2665;53.112;7.358;2022-09-09T16:51:23;2.00;;;0.60;;
5285;SDS011;2665;53.112;7.358;2022-09-09T16:53:50;1.90;;;0.60;;
5285;SDS011;2665;53.112;7.358;2022-09-09T16:56:18;1.70;;;0.60;;
5285;SDS011;2665;53.112;7.358;2022-09-09T16:58:48;1.60;;;0.60;;
5285;SDS011;2665;53.112;7.358;2022-09-09T17:01:15;3.20;;;0.60;;
5285;SDS011;2665;53.112;7.358;2022-09-09T17:03:41;1.70;;;0.60;;
5285;SDS011;2665;53.112;7.358;2022-09-09T17:06:13;2.10;;;0.70;;
5285;SDS011;2665;53.112;7.358;2022-09-09T17:08:40;2.33;;;0.77;;
5285;SDS011;2665;53.112;7.358;2022-09-09T17:11:16;2.00;;;0.60;;
5285;SDS011;2665;53.112;7.358;2022-09-09T17:13:43;1.67;;;0.60;;
5285;SDS011;2665;53.112;7.358;2022-09-09T17:16:10;2.10;;;0.90;;
5285;SDS011;2665;53.112;7.358;2022-09-09T17:18:36;2.30;;;0.60;;
5285;SDS011;2665;53.112;7.358;2022-09-09T17:21:03;3.23;;;0.80;;